createdAt,value
2019-06-08T00:00:26.996Z,90.61
2019-06-08T00:01:26.870Z,90.96
2019-06-08T00:02:26.875Z,90.75
2019-06-08T00:03:26.903Z,90.51
2019-06-08T00:04:26.880Z,89.18
2019-06-08T00:05:26.840Z,89.28
2019-06-08T00:06:26.828Z,87.45
2019-06-08T00:07:26.816Z,89.28
2019-06-08T00:08:26.794Z,90.10
2019-06-08T00:09:26.832Z,90.61
2019-06-08T00:10:26.789Z,89.90
2019-06-08T00:11:26.765Z,88.78
2019-06-08T00:12:26.771Z,88.88
2019-06-08T00:13:26.818Z,88.78
2019-06-08T00:14:26.748Z,90.10
2019-06-08T00:15:26.732Z,89.49
2019-06-08T00:16:26.727Z,89.08
2019-06-08T00:17:37.676Z,88.78
2019-06-08T00:18:27.706Z,89.32
2019-06-08T00:19:26.681Z,90.41
2019-06-08T00:20:26.705Z,92.76
2019-06-08T00:21:26.679Z,90.51
2019-06-08T00:22:26.666Z,90.61
2019-06-08T00:23:26.624Z,90.75
2019-06-08T00:24:26.625Z,92.49
2019-06-08T00:25:26.650Z,93.16
2019-06-08T00:26:26.604Z,92.49
2019-06-08T00:27:26.627Z,92.49
2019-06-08T00:28:26.598Z,90.45
2019-06-08T00:29:26.656Z,91.47
2019-06-08T00:30:26.551Z,91.37
2019-06-08T00:31:26.628Z,90.08
2019-06-08T00:32:26.542Z,90.49
2019-06-08T00:33:26.523Z,92.74
2019-06-08T00:34:26.525Z,91.11
2019-06-08T00:35:26.505Z,92.54
2019-06-08T00:36:26.521Z,91.20
2019-06-08T00:37:26.478Z,91.20
2019-06-08T00:38:26.468Z,92.02
2019-06-08T00:39:26.461Z,91.11
2019-06-08T00:40:26.489Z,90.59
2019-06-08T00:41:26.478Z,90.59
2019-06-08T00:42:26.540Z,91.05
2019-06-08T00:43:26.410Z,91.86
2019-06-08T00:44:26.428Z,90.29
2019-06-08T00:45:26.501Z,91.05
2019-06-08T00:46:26.461Z,90.94
2019-06-08T00:47:26.872Z,91.05
2019-06-08T00:48:26.385Z,90.74
2019-06-08T00:49:26.359Z,90.64
2019-06-08T00:50:26.373Z,90.84
2019-06-08T00:51:26.390Z,91.05
2019-06-08T00:52:26.311Z,91.25
2019-06-08T00:53:26.353Z,91.25
2019-06-08T00:54:26.282Z,91.15
2019-06-08T00:55:26.288Z,91.35
2019-06-08T00:56:26.315Z,90.74
2019-06-08T00:57:26.260Z,90.84
2019-06-08T00:58:26.439Z,90.74
2019-06-08T00:59:26.333Z,91.56
2019-06-08T01:00:26.762Z,91.35
2019-06-08T01:01:28.074Z,92.07
2019-06-08T01:02:26.762Z,93.09
2019-06-08T01:03:26.190Z,93.91
2019-06-08T01:04:27.198Z,93.55
2019-06-08T01:05:26.188Z,92.47
2019-06-08T01:06:27.369Z,93.40
2019-06-08T01:07:26.350Z,93.96
2019-06-08T01:08:27.389Z,93.55
2019-06-08T01:09:26.370Z,92.68
2019-06-08T01:10:27.477Z,91.05
2019-06-08T01:11:26.976Z,91.66
2019-06-08T01:12:26.776Z,91.35
2019-06-08T01:13:26.953Z,91.70
2019-06-08T01:14:27.080Z,92.52
2019-06-08T01:15:31.061Z,92.83
2019-06-08T01:16:27.138Z,92.42
2019-06-08T01:17:27.318Z,92.93
2019-06-08T01:18:27.366Z,93.13
2019-06-08T01:19:27.258Z,92.83
2019-06-08T01:20:27.342Z,92.11
2019-06-08T01:21:26.001Z,93.03
2019-06-08T01:22:26.008Z,92.97
2019-06-08T01:23:25.976Z,92.56
2019-06-08T01:24:25.959Z,92.46
2019-06-08T01:25:25.952Z,92.77
2019-06-08T01:26:26.071Z,92.97
2019-06-08T01:27:26.121Z,92.91
2019-06-08T01:28:26.185Z,93.32
2019-06-08T01:29:26.312Z,93.73
2019-06-08T01:30:26.338Z,93.12
2019-06-08T01:31:26.574Z,94.04
2019-06-08T01:32:26.411Z,93.73
2019-06-08T01:33:26.613Z,92.91
2019-06-08T01:34:27.034Z,93.12
2019-06-08T01:35:26.923Z,93.01
2019-06-08T01:36:27.393Z,93.01
2019-06-08T01:37:26.939Z,94.04
2019-06-08T01:38:27.101Z,93.73
2019-06-08T01:39:25.792Z,93.59
2019-06-08T01:40:25.796Z,93.99
2019-06-08T01:41:25.834Z,93.48
2019-06-08T01:42:25.869Z,89.18
2019-06-08T01:43:25.912Z,89.04
2019-06-08T01:44:25.737Z,88.94
2019-06-08T01:45:25.727Z,87.82
2019-06-08T01:46:25.943Z,85.83
2019-06-08T01:47:26.171Z,88.14
2019-06-08T01:48:26.301Z,88.24
2019-06-08T01:49:26.184Z,88.24
2019-06-08T01:50:26.432Z,85.96
2019-06-08T01:51:26.541Z,85.35
2019-06-08T01:52:26.590Z,84.33
2019-06-08T01:53:26.815Z,85.10
2019-06-08T01:54:26.849Z,85.51
2019-06-08T01:55:26.970Z,86.43
2019-06-08T01:56:25.612Z,84.96
2019-06-08T01:57:25.595Z,85.27
2019-06-08T01:58:25.577Z,85.98
2019-06-08T01:59:25.691Z,83.84
2019-06-08T02:00:30.342Z,86.29
2019-06-08T02:01:27.671Z,84.55
2019-06-08T02:02:25.936Z,83.49
2019-06-08T02:03:26.244Z,80.91
2019-06-08T02:04:26.009Z,81.31
2019-06-08T02:05:26.071Z,79.54
2019-06-08T02:06:26.176Z,81.17
2019-06-08T02:07:26.327Z,79.44
2019-06-08T02:08:26.563Z,79.95
2019-06-08T02:09:26.534Z,80.46
2019-06-08T02:10:26.406Z,80.87
2019-06-08T02:11:26.637Z,80.66
2019-06-08T02:12:26.660Z,79.03
2019-06-08T02:13:26.792Z,78.53
2019-06-08T02:14:25.405Z,77.06
2019-06-08T02:15:25.389Z,77.98
2019-06-08T02:16:25.688Z,77.37
2019-06-08T02:17:25.459Z,75.13
2019-06-08T02:18:36.345Z,74.79
2019-06-08T02:19:26.607Z,75.70
2019-06-08T02:20:26.306Z,76.52
2019-06-08T02:21:26.674Z,73.16
2019-06-08T02:22:26.680Z,75.70
2019-06-08T02:23:25.302Z,75.09
2019-06-08T02:24:25.289Z,74.69
2019-06-08T02:25:25.306Z,72.89
2019-06-08T02:26:27.564Z,75.74
2019-06-08T02:27:25.269Z,74.21
2019-06-08T02:28:25.249Z,71.56
2019-06-08T02:29:25.261Z,73.50
2019-06-08T02:30:25.259Z,75.33
2019-06-08T02:31:25.317Z,73.80
2019-06-08T02:32:25.217Z,74.11
2019-06-08T02:33:25.190Z,73.50
2019-06-08T02:34:25.214Z,73.54
2019-06-08T02:35:25.181Z,75.16
2019-06-08T02:36:25.318Z,73.23
2019-06-08T02:37:25.159Z,74.55
2019-06-08T02:38:25.133Z,71.30
2019-06-08T02:39:25.210Z,70.68
2019-06-08T02:40:25.156Z,70.17
2019-06-08T02:41:25.108Z,70.55
2019-06-08T02:42:25.207Z,69.73
2019-06-08T02:43:25.087Z,71.36
2019-06-08T02:44:25.072Z,71.77
2019-06-08T02:45:25.129Z,72.78
2019-06-08T02:46:25.064Z,71.70
2019-06-08T02:47:25.062Z,70.86
2019-06-08T02:48:25.018Z,73.10
2019-06-08T02:49:25.025Z,70.68
2019-06-08T02:50:25.002Z,70.65
2019-06-08T02:51:25.077Z,71.06
2019-06-08T02:52:25.031Z,72.38
2019-06-08T02:53:24.972Z,72.21
2019-06-08T02:54:24.961Z,71.09
2019-06-08T02:55:24.960Z,71.80
2019-06-08T02:56:24.992Z,70.28
2019-06-08T02:57:24.969Z,71.30
2019-06-08T02:58:24.942Z,68.85
2019-06-08T02:59:24.915Z,72.82
2019-06-08T03:00:24.922Z,70.58
2019-06-08T03:01:24.935Z,72.31
2019-06-08T03:02:24.871Z,72.75
2019-06-08T03:03:24.909Z,72.34
2019-06-08T03:04:24.846Z,71.73
2019-06-08T03:05:24.853Z,72.24
2019-06-08T03:06:24.908Z,74.08
2019-06-08T03:07:24.823Z,72.65
2019-06-08T03:08:24.819Z,73.36
2019-06-08T03:09:24.792Z,73.36
2019-06-08T03:10:24.871Z,72.14
2019-06-08T03:11:24.812Z,71.12
2019-06-08T03:12:24.759Z,72.24
2019-06-08T03:13:24.749Z,70.72
2019-06-08T03:14:24.788Z,71.53
2019-06-08T03:15:24.817Z,71.94
2019-06-08T03:16:24.744Z,71.63
2019-06-08T03:17:24.715Z,74.08
2019-06-08T03:18:24.698Z,73.36
2019-06-08T03:19:24.685Z,72.96
2019-06-08T03:20:24.681Z,72.04
2019-06-08T03:21:24.693Z,72.86
2019-06-08T03:22:24.670Z,72.45
2019-06-08T03:23:24.635Z,72.55
2019-06-08T03:24:24.640Z,72.24
2019-06-08T03:25:24.625Z,73.06
2019-06-08T03:26:24.653Z,70.61
2019-06-08T03:27:24.622Z,71.12
2019-06-08T03:28:24.600Z,70.72
2019-06-08T03:29:24.576Z,70.92
2019-06-08T03:30:24.621Z,70.51
2019-06-08T03:31:24.576Z,71.02
2019-06-08T03:32:24.651Z,71.12
2019-06-08T03:33:24.548Z,70.51
2019-06-08T03:34:24.561Z,72.04
2019-06-08T03:35:24.571Z,72.65
2019-06-08T03:36:24.507Z,72.58
2019-06-08T03:37:24.509Z,71.87
2019-06-08T03:38:24.510Z,72.24
2019-06-08T03:39:24.459Z,71.43
2019-06-08T03:40:24.471Z,71.53
2019-06-08T03:41:24.441Z,70.82
2019-06-08T03:42:24.460Z,71.43
2019-06-08T03:43:24.414Z,70.10
2019-06-08T03:44:24.410Z,71.63
2019-06-08T03:45:24.408Z,71.91
2019-06-08T03:46:24.458Z,72.01
2019-06-08T03:47:24.381Z,70.28
2019-06-08T03:48:24.465Z,69.76
2019-06-08T03:49:40.559Z,70.89
2019-06-08T03:50:25.397Z,70.28
2019-06-08T03:51:24.411Z,69.87
2019-06-08T03:52:24.332Z,71.60
2019-06-08T03:53:24.329Z,71.39
2019-06-08T03:54:24.386Z,71.19
2019-06-08T03:55:24.298Z,70.99
2019-06-08T03:56:24.300Z,70.99
2019-06-08T03:57:24.268Z,70.17
2019-06-08T03:58:24.270Z,70.38
2019-06-08T03:59:24.242Z,70.48
2019-06-08T04:00:24.282Z,68.85
2019-06-08T04:01:24.231Z,70.78
2019-06-08T04:02:24.214Z,69.97
2019-06-08T04:03:24.197Z,70.28
2019-06-08T04:04:24.190Z,69.46
2019-06-08T04:05:24.259Z,69.26
2019-06-08T04:06:24.170Z,69.26
2019-06-08T04:07:24.204Z,70.04
2019-06-08T04:08:24.159Z,67.60
2019-06-08T04:09:24.134Z,69.02
2019-06-08T04:10:24.255Z,68.41
2019-06-08T04:11:24.108Z,69.02
2019-06-08T04:12:24.132Z,69.53
2019-06-08T04:13:24.098Z,69.63
2019-06-08T04:14:24.079Z,70.38
2019-06-08T04:15:24.066Z,68.85
2019-06-08T04:16:24.087Z,69.63
2019-06-08T04:17:24.044Z,67.19
2019-06-08T04:18:24.056Z,67.60
2019-06-08T04:19:24.036Z,66.47
2019-06-08T04:20:23.999Z,68.10
2019-06-08T04:21:24.066Z,66.27
2019-06-08T04:22:24.004Z,68.10
2019-06-08T04:23:23.971Z,64.84
2019-06-08T04:24:23.974Z,65.25
2019-06-08T04:25:23.958Z,66.78
2019-06-08T04:26:23.970Z,65.66
2019-06-08T04:27:23.949Z,66.68
2019-06-08T04:28:24.012Z,66.78
2019-06-08T04:29:23.913Z,65.66
2019-06-08T04:30:23.897Z,64.14
2019-06-08T04:31:23.917Z,63.70
2019-06-08T04:32:23.871Z,63.70
2019-06-08T04:33:23.867Z,63.90
2019-06-08T04:34:23.869Z,65.53
2019-06-08T04:35:23.839Z,65.43
2019-06-08T04:36:23.912Z,64.20
2019-06-08T04:37:23.838Z,65.94
2019-06-08T04:38:23.827Z,64.72
2019-06-08T04:39:23.796Z,64.51
2019-06-08T04:40:23.815Z,64.72
2019-06-08T04:41:23.780Z,64.51
2019-06-08T04:42:23.831Z,63.77
2019-06-08T04:43:23.753Z,62.59
2019-06-08T04:44:23.740Z,62.08
2019-06-08T04:45:23.755Z,62.62
2019-06-08T04:46:23.728Z,61.71
2019-06-08T04:47:23.718Z,62.04
2019-06-08T04:48:23.737Z,62.45
2019-06-08T04:49:23.680Z,62.55
2019-06-08T04:50:24.342Z,63.36
2019-06-08T04:51:23.664Z,61.83
2019-06-08T04:52:23.711Z,61.33
2019-06-08T04:53:23.640Z,62.04
2019-06-08T04:54:23.637Z,61.53
2019-06-08T04:55:23.619Z,63.46
2019-06-08T04:56:23.628Z,62.75
2019-06-08T04:57:23.627Z,59.80
2019-06-08T04:58:23.582Z,60.21
2019-06-08T04:59:23.602Z,60.82
2019-06-08T05:00:23.560Z,60.21
2019-06-08T05:01:23.556Z,59.09
2019-06-08T05:02:23.539Z,60.00
2019-06-08T05:03:23.525Z,60.61
2019-06-08T05:04:23.576Z,60.69
2019-06-08T05:05:23.509Z,59.88
2019-06-08T05:06:23.498Z,59.37
2019-06-08T05:07:23.498Z,60.08
2019-06-08T05:08:23.467Z,60.49
2019-06-08T05:09:23.515Z,61.40
2019-06-08T05:10:23.495Z,62.79
2019-06-08T05:11:23.458Z,62.29
2019-06-08T05:12:23.436Z,61.68
2019-06-08T05:13:23.414Z,61.37
2019-06-08T05:14:23.470Z,61.27
2019-06-08T05:15:23.395Z,62.59
2019-06-08T05:16:23.469Z,61.27
2019-06-08T05:17:23.378Z,61.68
2019-06-08T05:18:25.972Z,61.68
2019-06-08T05:19:23.426Z,62.49
2019-06-08T05:20:37.828Z,62.49
2019-06-08T05:21:24.335Z,62.49
2019-06-08T05:22:23.337Z,62.79
2019-06-08T05:23:23.314Z,63.13
2019-06-08T05:24:23.366Z,63.91
2019-06-08T05:25:23.314Z,63.20
2019-06-08T05:26:23.279Z,63.20
2019-06-08T05:27:23.265Z,61.04
2019-06-08T05:28:23.262Z,61.14
2019-06-08T05:29:23.251Z,61.14
2019-06-08T05:30:23.263Z,62.05
2019-06-08T05:31:23.215Z,60.83
2019-06-08T05:32:23.218Z,60.53
2019-06-08T05:33:23.213Z,59.21
2019-06-08T05:34:23.196Z,60.63
2019-06-08T05:35:23.248Z,60.71
2019-06-08T05:36:23.186Z,58.98
2019-06-08T05:37:23.194Z,59.79
2019-06-08T05:38:23.149Z,59.69
2019-06-08T05:39:23.134Z,60.60
2019-06-08T05:40:23.162Z,60.20
2019-06-08T05:41:24.246Z,59.79
2019-06-08T05:42:23.105Z,59.89
2019-06-08T05:43:23.091Z,59.69
2019-06-08T05:44:23.078Z,59.89
2019-06-08T05:45:23.129Z,60.30
2019-06-08T05:46:23.138Z,58.47
2019-06-08T05:47:23.075Z,59.59
2019-06-08T05:48:23.035Z,60.60
2019-06-08T05:49:23.024Z,60.22
2019-06-08T05:50:23.018Z,58.80
2019-06-08T05:51:23.055Z,60.10
2019-06-08T05:52:22.997Z,60.40
2019-06-08T05:53:22.998Z,60.10
2019-06-08T05:54:22.964Z,59.48
2019-06-08T05:55:22.964Z,59.28
2019-06-08T05:56:23.019Z,61.32
2019-06-08T05:57:22.944Z,60.81
2019-06-08T05:58:22.932Z,59.39
2019-06-08T05:59:22.955Z,60.07
2019-06-08T06:00:22.931Z,59.56
2019-06-08T06:01:22.938Z,60.24
2019-06-08T06:02:22.918Z,58.75
2019-06-08T06:03:22.888Z,59.05
2019-06-08T06:04:22.910Z,58.14
2019-06-08T06:05:22.848Z,59.89
2019-06-08T06:06:22.911Z,59.69
2019-06-08T06:07:23.041Z,58.98
2019-06-08T06:08:22.830Z,61.32
2019-06-08T06:09:22.819Z,61.99
2019-06-08T06:10:22.802Z,59.56
2019-06-08T06:11:22.788Z,59.94
2019-06-08T06:12:22.805Z,58.92
2019-06-08T06:13:22.803Z,58.45
2019-06-08T06:14:22.768Z,59.66
2019-06-08T06:15:22.743Z,60.17
2019-06-08T06:16:22.734Z,58.95
2019-06-08T06:17:22.741Z,59.33
2019-06-08T06:18:22.827Z,59.05
2019-06-08T06:19:22.703Z,59.53
2019-06-08T06:20:22.678Z,59.63
2019-06-08T06:21:22.675Z,58.31
2019-06-08T06:22:22.661Z,58.92
2019-06-08T06:23:22.689Z,57.20
2019-06-08T06:24:22.648Z,57.50
2019-06-08T06:25:22.678Z,59.12
2019-06-08T06:26:22.659Z,58.72
2019-06-08T06:27:22.615Z,57.91
2019-06-08T06:28:22.600Z,58.82
2019-06-08T06:29:22.618Z,58.92
2019-06-08T06:30:22.624Z,58.22
2019-06-08T06:31:22.570Z,59.12
2019-06-08T06:32:22.560Z,57.30
2019-06-08T06:33:22.595Z,59.63
2019-06-08T06:34:22.564Z,59.94
2019-06-08T06:35:22.520Z,59.91
2019-06-08T06:36:22.614Z,59.43
2019-06-08T06:37:22.516Z,58.62
2019-06-08T06:38:22.489Z,56.72
2019-06-08T06:39:22.694Z,57.60
2019-06-08T06:40:22.471Z,59.12
2019-06-08T06:41:22.478Z,58.75
2019-06-08T06:42:24.846Z,57.73
2019-06-08T06:43:22.447Z,58.54
2019-06-08T06:44:22.438Z,58.42
2019-06-08T06:45:22.429Z,59.05
2019-06-08T06:46:22.451Z,58.45
2019-06-08T06:47:22.412Z,58.54
2019-06-08T06:48:23.616Z,59.66
2019-06-08T06:49:22.407Z,58.14
2019-06-08T06:50:22.418Z,59.05
2019-06-08T06:51:26.335Z,58.45
2019-06-08T06:52:22.362Z,60.47
2019-06-08T06:53:22.320Z,59.86
2019-06-08T06:54:22.311Z,60.78
2019-06-08T06:55:25.258Z,59.36
2019-06-08T06:56:22.326Z,57.64
2019-06-08T06:57:22.277Z,58.54
2019-06-08T06:58:22.258Z,59.43
2019-06-08T06:59:22.262Z,60.24
2019-06-08T07:00:22.235Z,60.85
2019-06-08T07:01:22.248Z,60.14
2019-06-08T07:02:22.250Z,57.71
2019-06-08T07:03:22.379Z,59.56
2019-06-08T07:04:22.197Z,57.43
2019-06-08T07:05:22.198Z,59.46
2019-06-08T07:06:22.209Z,58.95
2019-06-08T07:07:22.191Z,57.64
2019-06-08T07:08:22.174Z,57.84
2019-06-08T07:09:22.124Z,58.85
2019-06-08T07:10:22.115Z,58.11
2019-06-08T07:11:22.149Z,59.23
2019-06-08T07:12:22.166Z,58.72
2019-06-08T07:13:22.114Z,57.60
2019-06-08T07:14:22.089Z,58.82
2019-06-08T07:15:22.095Z,59.03
2019-06-08T07:16:22.130Z,58.42
2019-06-08T07:17:22.089Z,58.54
2019-06-08T07:18:22.034Z,59.26
2019-06-08T07:19:22.041Z,59.16
2019-06-08T07:20:22.007Z,59.16
2019-06-08T07:21:21.996Z,59.16
2019-06-08T07:22:22.067Z,60.37
2019-06-08T07:23:21.978Z,59.12
2019-06-08T07:24:21.984Z,58.75
2019-06-08T07:25:21.957Z,57.50
2019-06-08T07:26:21.941Z,57.78
2019-06-08T07:27:21.927Z,58.67
2019-06-08T07:28:21.981Z,56.64
2019-06-08T07:29:21.932Z,58.47
2019-06-08T07:30:21.938Z,58.16
2019-06-08T07:31:21.884Z,56.64
2019-06-08T07:32:21.873Z,56.05
2019-06-08T07:33:21.889Z,57.68
2019-06-08T07:34:21.855Z,58.97
2019-06-08T07:35:21.833Z,58.36
2019-06-08T07:36:21.822Z,58.87
2019-06-08T07:37:21.812Z,57.65
2019-06-08T07:38:21.829Z,58.39
2019-06-08T07:39:21.795Z,56.97
2019-06-08T07:40:21.841Z,56.87
2019-06-08T07:41:21.768Z,57.40
2019-06-08T07:42:21.756Z,57.60
2019-06-08T07:43:21.833Z,57.81
2019-06-08T07:44:21.739Z,58.92
2019-06-08T07:45:21.761Z,58.62
2019-06-08T07:46:21.805Z,58.34
2019-06-08T07:47:21.701Z,59.16
2019-06-08T07:48:21.696Z,58.65
2019-06-08T07:49:21.759Z,60.37
2019-06-08T07:50:21.699Z,60.17
2019-06-08T07:51:21.656Z,61.29
2019-06-08T07:52:21.644Z,59.36
2019-06-08T07:53:21.644Z,60.58
2019-06-08T07:54:21.655Z,59.16
2019-06-08T07:55:21.602Z,59.86
2019-06-08T07:56:21.606Z,58.85
2019-06-08T07:57:21.588Z,59.36
2019-06-08T07:58:21.648Z,59.86
2019-06-08T07:59:21.597Z,59.16
2019-06-08T08:00:21.568Z,58.95
2019-06-08T08:01:35.223Z,59.56
2019-06-08T08:02:22.548Z,59.05
2019-06-08T08:03:21.526Z,59.97
2019-06-08T08:04:21.537Z,58.54
2019-06-08T08:05:21.510Z,60.07
2019-06-08T08:06:21.509Z,59.05
2019-06-08T08:07:21.481Z,60.07
2019-06-08T08:08:21.489Z,58.95
2019-06-08T08:09:21.457Z,60.07
2019-06-08T08:10:21.463Z,60.17
2019-06-08T08:11:21.439Z,59.56
2019-06-08T08:12:21.421Z,59.66
2019-06-08T08:13:21.493Z,59.46
2019-06-08T08:14:21.410Z,59.63
2019-06-08T08:15:21.466Z,60.75
2019-06-08T08:16:21.487Z,59.43
2019-06-08T08:17:21.360Z,60.04
2019-06-08T08:18:21.360Z,58.92
2019-06-08T08:19:21.364Z,58.52
2019-06-08T08:20:21.400Z,59.00
2019-06-08T08:21:26.036Z,58.56
2019-06-08T08:22:26.165Z,58.03
2019-06-08T08:23:22.365Z,57.80
2019-06-08T08:24:21.317Z,57.70
2019-06-08T08:25:21.290Z,57.40
2019-06-08T08:26:21.317Z,57.17
2019-06-08T08:27:21.276Z,58.07
2019-06-08T08:28:21.250Z,56.48
2019-06-08T08:29:21.229Z,57.20
2019-06-08T08:30:21.235Z,57.12
2019-06-08T08:31:21.365Z,57.02
2019-06-08T08:32:21.199Z,56.95
2019-06-08T08:33:21.207Z,57.15
2019-06-08T08:34:21.176Z,58.16
2019-06-08T08:35:21.171Z,58.36
2019-06-08T08:36:21.186Z,58.67
2019-06-08T08:37:21.153Z,58.18
2019-06-08T08:38:21.159Z,58.09
2019-06-08T08:39:21.297Z,56.77
2019-06-08T08:40:21.110Z,57.48
2019-06-08T08:41:21.100Z,58.09
2019-06-08T08:42:21.150Z,59.30
2019-06-08T08:43:23.035Z,58.39
2019-06-08T08:44:21.076Z,58.49
2019-06-08T08:45:21.056Z,59.70
2019-06-08T08:46:21.059Z,58.69
2019-06-08T08:47:21.031Z,60.52
2019-06-08T08:48:28.015Z,59.53
2019-06-08T08:49:22.010Z,59.94
2019-06-08T08:50:21.019Z,60.65
2019-06-08T08:51:20.985Z,59.50
2019-06-08T08:52:33.616Z,60.11
2019-06-08T08:53:22.039Z,60.31
2019-06-08T08:54:20.968Z,59.10
2019-06-08T08:55:20.931Z,59.61
2019-06-08T08:56:20.920Z,58.59
2019-06-08T08:57:20.944Z,60.01
2019-06-08T08:58:20.908Z,60.11
2019-06-08T08:59:20.878Z,60.01
2019-06-08T09:00:20.876Z,59.50
2019-06-08T09:01:20.904Z,59.41
2019-06-08T09:02:21.469Z,57.45
2019-06-08T09:03:28.762Z,59.17
2019-06-08T09:04:21.868Z,58.97
2019-06-08T09:05:20.837Z,58.87
2019-06-08T09:06:20.825Z,57.86
2019-06-08T09:07:20.863Z,59.07
2019-06-08T09:08:23.232Z,58.97
2019-06-08T09:09:21.682Z,56.95
2019-06-08T09:10:20.809Z,59.07
2019-06-08T09:11:20.871Z,59.75
2019-06-08T09:12:20.875Z,58.84
2019-06-08T09:13:20.810Z,57.93
2019-06-08T09:14:20.756Z,57.93
2019-06-08T09:15:20.710Z,59.34
2019-06-08T09:16:20.706Z,56.59
2019-06-08T09:17:20.689Z,56.99
2019-06-08T09:18:20.687Z,56.99
2019-06-08T09:19:21.020Z,57.70
2019-06-08T09:20:20.720Z,56.69
2019-06-08T09:21:20.645Z,56.38
2019-06-08T09:22:20.705Z,56.28
2019-06-08T09:23:21.895Z,57.47
2019-06-08T09:24:20.718Z,57.90
2019-06-08T09:25:20.605Z,57.78
2019-06-08T09:26:20.610Z,58.36
2019-06-08T09:27:20.578Z,57.65
2019-06-08T09:28:20.569Z,54.94
2019-06-08T09:29:20.568Z,54.94
2019-06-08T09:30:20.575Z,57.24
2019-06-08T09:31:20.572Z,55.22
2019-06-08T09:32:20.521Z,57.14
2019-06-08T09:33:20.533Z,54.71
2019-06-08T09:34:20.667Z,56.13
2019-06-08T09:35:21.378Z,56.00
2019-06-08T09:36:20.491Z,55.62
2019-06-08T09:37:20.475Z,56.13
2019-06-08T09:38:20.462Z,56.84
2019-06-08T09:39:20.569Z,54.82
2019-06-08T09:40:20.436Z,54.71
2019-06-08T09:41:20.431Z,55.65
2019-06-08T09:42:21.232Z,57.17
2019-06-08T09:43:20.454Z,56.76
2019-06-08T09:44:20.393Z,58.48
2019-06-08T09:45:20.388Z,56.18
2019-06-08T09:46:20.378Z,58.51
2019-06-08T09:47:20.357Z,58.71
2019-06-08T09:48:20.508Z,57.60
2019-06-08T09:49:20.339Z,57.50
2019-06-08T09:50:20.322Z,56.38
2019-06-08T09:51:20.318Z,56.99
2019-06-08T09:52:21.734Z,56.38
2019-06-08T09:53:28.510Z,58.81
2019-06-08T09:54:21.289Z,56.15
2019-06-08T09:55:20.378Z,56.76
2019-06-08T09:56:20.272Z,57.57
2019-06-08T09:57:20.350Z,57.27
2019-06-08T09:58:20.251Z,56.36
2019-06-08T09:59:20.253Z,55.35
2019-06-08T10:00:22.244Z,57.47
2019-06-08T10:01:21.205Z,55.55
2019-06-08T10:02:20.212Z,57.60
2019-06-08T10:03:20.192Z,57.70
2019-06-08T10:04:20.218Z,56.96
2019-06-08T10:05:20.165Z,55.95
2019-06-08T10:06:20.164Z,57.17
2019-06-08T10:07:20.127Z,55.85
2019-06-08T10:08:20.835Z,57.87
2019-06-08T10:09:20.148Z,55.65
2019-06-08T10:10:20.270Z,57.27
2019-06-08T10:11:20.106Z,57.87
2019-06-08T10:12:20.089Z,57.17
2019-06-08T10:13:20.078Z,56.43
2019-06-08T10:14:20.141Z,57.34
2019-06-08T10:15:20.092Z,56.33
2019-06-08T10:16:20.061Z,55.93
2019-06-08T10:17:21.029Z,55.02
2019-06-08T10:18:20.029Z,55.85
2019-06-08T10:19:20.067Z,57.44
2019-06-08T10:20:20.050Z,57.11
2019-06-08T10:21:21.108Z,58.43
2019-06-08T10:22:19.976Z,57.36
2019-06-08T10:23:30.622Z,57.46
2019-06-08T10:24:21.038Z,55.04
2019-06-08T10:25:19.950Z,54.43
2019-06-08T10:26:19.928Z,53.65
2019-06-08T10:27:19.920Z,53.38
2019-06-08T10:28:21.762Z,55.40
2019-06-08T10:29:19.973Z,55.80
2019-06-08T10:30:19.899Z,57.21
2019-06-08T10:31:33.182Z,56.51
2019-06-08T10:32:20.863Z,57.21
2019-06-08T10:33:19.869Z,57.69
2019-06-08T10:34:19.907Z,53.05
2019-06-08T10:35:20.991Z,53.85
2019-06-08T10:36:19.837Z,53.12
2019-06-08T10:37:19.827Z,54.13
2019-06-08T10:38:19.823Z,53.83
2019-06-08T10:39:19.799Z,55.82
2019-06-08T10:40:19.808Z,53.17
2019-06-08T10:41:21.882Z,52.74
2019-06-08T10:42:19.759Z,52.84
2019-06-08T10:43:19.991Z,51.93
2019-06-08T10:44:19.738Z,53.63
2019-06-08T10:45:19.801Z,51.31
2019-06-08T10:46:20.806Z,51.71
2019-06-08T10:47:19.715Z,51.99
2019-06-08T10:48:19.691Z,52.69
2019-06-08T10:49:19.959Z,51.16
2019-06-08T10:50:19.854Z,52.87
2019-06-08T10:51:19.681Z,49.85
2019-06-08T10:52:20.328Z,51.16
2019-06-08T10:53:19.657Z,52.37
2019-06-08T10:54:19.656Z,51.97
2019-06-08T10:55:19.672Z,51.56
2019-06-08T10:56:19.613Z,53.00
2019-06-08T10:57:19.670Z,52.29
2019-06-08T10:58:19.715Z,52.39
2019-06-08T10:59:19.565Z,50.98
2019-06-08T11:00:23.536Z,50.70
2019-06-08T11:01:19.586Z,51.51
2019-06-08T11:02:19.565Z,52.51
2019-06-08T11:03:19.521Z,51.51
2019-06-08T11:04:19.554Z,51.03
2019-06-08T11:05:19.548Z,49.59
2019-06-08T11:06:19.526Z,49.59
2019-06-08T11:07:19.482Z,50.15
2019-06-08T11:08:19.470Z,51.38
2019-06-08T11:09:19.604Z,49.44
2019-06-08T11:10:19.518Z,50.57
2019-06-08T11:11:20.476Z,49.87
2019-06-08T11:12:19.434Z,49.57
2019-06-08T11:13:19.413Z,51.16
2019-06-08T11:14:22.524Z,50.25
2019-06-08T11:15:19.472Z,49.24
2019-06-08T11:16:19.389Z,50.76
2019-06-08T11:17:19.366Z,49.24
2019-06-08T11:18:19.364Z,52.37
2019-06-08T11:19:19.486Z,50.56
2019-06-08T11:20:19.404Z,48.11
2019-06-08T11:21:19.369Z,47.83
2019-06-08T11:22:19.320Z,48.94
2019-06-08T11:23:19.336Z,50.13
2019-06-08T11:24:24.674Z,49.40
2019-06-08T11:25:20.333Z,50.26
2019-06-08T11:26:24.099Z,50.35
2019-06-08T11:27:20.253Z,48.25
2019-06-08T11:28:19.259Z,47.77
2019-06-08T11:29:19.238Z,49.25
2019-06-08T11:30:23.653Z,48.14
2019-06-08T11:31:20.230Z,49.85
2019-06-08T11:32:19.188Z,48.95
2019-06-08T11:33:19.274Z,50.18
2019-06-08T11:34:21.872Z,50.60
2019-06-08T11:35:19.167Z,49.60
2019-06-08T11:36:19.309Z,49.50
2019-06-08T11:37:41.145Z,50.28
2019-06-08T11:38:20.239Z,50.81
2019-06-08T11:39:19.120Z,49.50
2019-06-08T11:40:20.766Z,50.40
2019-06-08T11:41:22.623Z,49.60
2019-06-08T11:42:19.310Z,49.82
2019-06-08T11:43:19.094Z,48.82
2019-06-08T11:44:19.073Z,48.14
2019-06-08T11:45:19.055Z,49.37
2019-06-08T11:46:21.846Z,51.28
2019-06-08T11:47:19.084Z,50.65
2019-06-08T11:48:19.025Z,51.03
2019-06-08T11:49:19.126Z,49.90
2019-06-08T11:50:19.029Z,50.40
2019-06-08T11:51:19.136Z,50.40
2019-06-08T11:52:18.994Z,50.48
2019-06-08T11:53:18.980Z,50.28
2019-06-08T11:54:32.315Z,49.65
2019-06-08T11:55:19.952Z,48.52
2019-06-08T11:56:18.991Z,49.02
2019-06-08T11:57:18.949Z,48.02
2019-06-08T11:58:22.677Z,48.90
2019-06-08T11:59:18.899Z,48.32
2019-06-08T12:00:27.402Z,46.89
2019-06-08T12:01:19.937Z,47.32
2019-06-08T12:02:18.878Z,46.01
2019-06-08T12:03:18.872Z,47.82
2019-06-08T12:04:18.888Z,46.11
2019-06-08T12:05:18.897Z,46.51
2019-06-08T12:06:18.846Z,48.52
2019-06-08T12:07:18.885Z,46.34
2019-06-08T12:08:20.918Z,47.85
2019-06-08T12:09:19.090Z,49.25
2019-06-08T12:10:18.816Z,48.95
2019-06-08T12:11:20.910Z,46.15
2019-06-08T12:12:21.287Z,48.32
2019-06-08T12:13:18.762Z,49.82
2019-06-08T12:14:18.754Z,48.72
2019-06-08T12:15:21.198Z,47.06
2019-06-08T12:16:22.002Z,48.75
2019-06-08T12:17:22.241Z,47.74
2019-06-08T12:18:18.698Z,46.54
2019-06-08T12:19:20.853Z,47.32
2019-06-08T12:20:21.296Z,46.72
2019-06-08T12:21:19.671Z,45.53
2019-06-08T12:22:21.659Z,46.92
2019-06-08T12:23:18.684Z,45.69
2019-06-08T12:24:18.678Z,45.97
2019-06-08T12:25:18.631Z,46.27
2019-06-08T12:26:18.700Z,47.27
2019-06-08T12:27:26.851Z,45.87
2019-06-08T12:28:19.590Z,45.89
2019-06-08T12:29:19.000Z,45.01
2019-06-08T12:30:25.642Z,46.54
2019-06-08T12:31:22.604Z,45.63
2019-06-08T12:32:18.587Z,47.52
2019-06-08T12:33:19.875Z,46.31
2019-06-08T12:34:18.704Z,46.94
2019-06-08T12:35:18.554Z,44.75
2019-06-08T12:36:20.732Z,47.46
2019-06-08T12:37:22.189Z,45.57
2019-06-08T12:38:19.169Z,45.75
2019-06-08T12:39:19.723Z,48.17
2019-06-08T12:40:20.486Z,45.05
2019-06-08T12:41:19.420Z,47.66
2019-06-08T12:42:22.970Z,47.14
2019-06-08T12:43:20.336Z,45.51
2019-06-08T12:44:21.717Z,45.57
2019-06-08T12:45:20.317Z,47.05
2019-06-08T12:46:20.917Z,46.04
2019-06-08T12:47:24.720Z,45.84
2019-06-08T12:48:23.477Z,43.62
2019-06-08T12:49:20.473Z,43.02
2019-06-08T12:50:18.354Z,45.83
2019-06-08T12:51:19.937Z,43.40
2019-06-08T12:52:22.203Z,43.72